Time;durP1;ratioP1;P1;durP2;ratioP2;P2;SDS_P1;SDS_P2;PMS_P1;PMS_P2;Temp;Humidity;BMP_temperature;BMP_pressure;BME280_temperature;BME280_humidity;BME280_pressure;Samples;Min_cycle;Max_cycle;Signal;HPM_P1;HPM_P2
2021/04/12 00:01:11;;;;;;;108.20;103.90;;;0.70;99.90;;;;;;5114867;28;20456;-81
2021/04/12 00:03:47;;;;;;;108.13;103.83;;;0.80;99.90;;;;;;5115136;28;20223;-81
2021/04/12 00:06:19;;;;;;;113.57;108.00;;;0.70;99.90;;;;;;5114801;28;20451;-81
2021/04/12 00:08:51;;;;;;;107.30;103.00;;;0.70;99.90;;;;;;5114794;28;20947;-81
2021/04/12 00:11:28;;;;;;;120.60;115.63;;;0.70;99.90;;;;;;5115267;27;20445;-81
2021/04/12 00:14:00;;;;;;;117.80;112.80;;;0.70;99.90;;;;;;5115037;28;20229;-81
2021/04/12 00:16:32;;;;;;;129.67;123.30;;;0.80;99.90;;;;;;5126000;27;20451;-81
2021/04/12 00:19:05;;;;;;;126.72;120.47;;;0.80;99.90;;;;;;5135435;27;20990;-81
2021/04/12 00:21:39;;;;;;;124.57;119.13;;;0.70;99.90;;;;;;5122456;27;20681;-81
2021/04/12 00:24:11;;;;;;;131.93;124.55;;;0.80;99.90;;;;;;5114797;28;20550;-81
2021/04/12 00:26:46;;;;;;;132.87;126.93;;;0.80;99.90;;;;;;5114976;28;20195;-81
2021/04/12 00:29:19;;;;;;;135.35;129.50;;;0.90;99.90;;;;;;5120704;27;20447;-81
2021/04/12 00:31:53;;;;;;;142.85;136.10;;;1.00;99.90;;;;;;5135185;27;20281;-81
2021/04/12 00:34:24;;;;;;;144.15;138.05;;;1.00;99.90;;;;;;5128112;27;20192;-81
2021/04/12 00:36:56;;;;;;;148.68;142.07;;;1.00;99.90;;;;;;5113308;28;20290;-81
2021/04/12 00:39:36;;;;;;;161.53;154.30;;;1.00;99.90;;;;;;5120555;27;20222;-81
2021/04/12 00:42:15;;;;;;;158.82;152.23;;;1.00;99.90;;;;;;5135127;27;20526;-81
2021/04/12 00:44:59;;;;;;;152.60;145.65;;;1.00;99.90;;;;;;5126439;27;20277;-81
2021/04/12 00:47:36;;;;;;;157.80;150.55;;;1.10;99.90;;;;;;5114330;28;20578;-81
2021/04/12 00:50:24;;;;;;;153.60;146.60;;;1.10;99.90;;;;;;5124779;27;20186;-81
2021/04/12 00:53:14;;;;;;;168.53;161.47;;;1.10;99.90;;;;;;5133594;27;20813;-81
2021/04/12 00:55:44;;;;;;;159.52;152.70;;;1.20;99.90;;;;;;5119145;27;20480;-81
2021/04/12 00:58:20;;;;;;;152.90;146.25;;;1.20;99.90;;;;;;5114048;28;20215;-81
2021/04/12 01:00:51;;;;;;;146.77;140.88;;;1.20;99.90;;;;;;5132879;27;20232;-81
2021/04/12 01:03:36;;;;;;;158.25;151.60;;;1.20;99.90;;;;;;5134693;27;20198;-80
2021/04/12 01:06:12;;;;;;;155.43;148.73;;;1.30;99.90;;;;;;5113934;28;20279;-81
2021/04/12 01:09:02;;;;;;;147.73;141.47;;;1.20;99.90;;;;;;5112644;28;20449;-81
2021/04/12 01:12:05;;;;;;;148.65;142.23;;;1.10;99.90;;;;;;5113947;28;20449;-81
2021/04/12 01:15:01;;;;;;;150.70;144.50;;;1.10;99.90;;;;;;5113797;28;20218;-81
2021/04/12 01:17:44;;;;;;;145.05;138.60;;;1.10;99.90;;;;;;5113216;28;20461;-81
2021/04/12 01:20:50;;;;;;;150.88;144.57;;;1.10;99.90;;;;;;5113420;28;20214;-81
2021/04/12 01:23:48;;;;;;;143.40;137.23;;;1.00;99.90;;;;;;5112467;28;20281;-81
2021/04/12 01:26:48;;;;;;;143.40;136.60;;;1.00;99.90;;;;;;5113495;28;20456;-81
2021/04/12 01:30:11;;;;;;;145.37;138.67;;;1.00;99.90;;;;;;5079053;28;20513;-81
2021/04/12 01:33:20;;;;;;;145.70;139.53;;;0.90;99.90;;;;;;5113614;28;20467;-81
2021/04/12 01:36:21;;;;;;;148.10;141.18;;;1.00;99.90;;;;;;5113083;28;20515;-81
2021/04/12 01:38:57;;;;;;;153.50;146.43;;;1.00;99.90;;;;;;5112647;28;20246;-81
2021/04/12 01:41:46;;;;;;;146.87;140.30;;;1.10;99.90;;;;;;5113365;28;20535;-81
2021/04/12 01:44:27;;;;;;;147.25;138.85;;;1.00;99.90;;;;;;5117356;27;20455;-81
2021/04/12 01:47:04;;;;;;;157.70;149.40;;;1.00;99.90;;;;;;5133952;27;20226;-82
2021/04/12 01:49:45;;;;;;;153.30;146.20;;;1.00;99.90;;;;;;5127584;27;20449;-81
2021/04/12 01:52:36;;;;;;;149.43;142.53;;;0.90;99.90;;;;;;5112374;28;20667;-81
2021/04/12 01:55:26;;;;;;;159.77;152.67;;;0.90;99.90;;;;;;5122879;27;20548;-81
2021/04/12 01:58:24;;;;;;;139.65;133.75;;;1.00;99.90;;;;;;5133609;27;20458;-81
2021/04/12 02:01:02;;;;;;;128.93;123.63;;;1.10;99.90;;;;;;5114728;27;20274;-81
2021/04/12 02:03:53;;;;;;;130.50;124.80;;;1.10;99.90;;;;;;5113273;28;20191;-81
2021/04/12 02:06:34;;;;;;;126.50;119.97;;;1.10;99.90;;;;;;5112697;28;20481;-81
2021/04/12 02:09:13;;;;;;;116.50;111.40;;;1.20;99.90;;;;;;5112840;28;20472;-81
2021/04/12 02:11:54;;;;;;;127.37;121.90;;;1.10;99.90;;;;;;5113110;28;20649;-81
2021/04/12 02:14:40;;;;;;;120.73;115.53;;;1.10;99.90;;;;;;5118120;28;20961;-81
2021/04/12 02:17:14;;;;;;;120.80;115.40;;;1.10;99.90;;;;;;5133660;27;20494;-81
2021/04/12 02:19:53;;;;;;;121.53;116.43;;;1.00;99.90;;;;;;5125778;27;20533;-81
2021/04/12 02:23:09;;;;;;;119.97;114.30;;;1.00;99.90;;;;;;5111637;28;20942;-81
2021/04/12 02:25:44;;;;;;;113.57;108.50;;;1.00;99.90;;;;;;5127540;27;20531;-81
2021/04/12 02:28:29;;;;;;;115.20;109.87;;;1.00;99.90;;;;;;5134431;27;20475;-81
2021/04/12 02:31:08;;;;;;;105.80;101.20;;;0.90;99.90;;;;;;5116694;28;20541;-81
2021/04/12 02:33:43;;;;;;;105.43;101.00;;;0.80;99.90;;;;;;5116846;28;20967;-81
2021/04/12 02:36:14;;;;;;;103.05;98.75;;;0.70;99.90;;;;;;5116847;28;20222;-81
2021/04/12 02:38:54;;;;;;;104.45;100.05;;;0.70;99.90;;;;;;5115429;28;20313;-81
2021/04/12 02:41:48;;;;;;;108.63;103.80;;;0.70;99.90;;;;;;5116796;28;20191;-81
2021/04/12 02:44:30;;;;;;;105.88;101.28;;;0.70;99.90;;;;;;5116533;28;20787;-81
2021/04/12 02:47:36;;;;;;;102.72;98.53;;;0.70;99.90;;;;;;5116750;28;20328;-81
2021/04/12 02:50:18;;;;;;;103.47;99.07;;;0.60;99.90;;;;;;5116451;28;20553;-81
2021/04/12 02:53:03;;;;;;;101.32;96.82;;;0.70;99.90;;;;;;5115552;28;20501;-81
2021/04/12 02:55:48;;;;;;;99.87;95.87;;;0.70;99.90;;;;;;5116069;28;20222;-81
2021/04/12 02:58:54;;;;;;;104.90;100.20;;;0.70;99.90;;;;;;5116435;28;20455;-81
2021/04/12 03:01:38;;;;;;;101.27;96.77;;;0.70;99.90;;;;;;5116407;28;20472;-81
2021/04/12 03:04:24;;;;;;;102.97;96.57;;;0.90;99.90;;;;;;5116131;28;20452;-80
2021/04/12 03:07:25;;;;;;;109.05;103.55;;;0.90;99.90;;;;;;5114974;28;20281;-81
2021/04/12 03:10:06;;;;;;;103.40;99.20;;;1.00;99.90;;;;;;5122946;27;20264;-81
2021/04/12 03:13:01;;;;;;;109.17;104.57;;;1.00;99.90;;;;;;5125770;27;20187;-81
2021/04/12 03:15:42;;;;;;;107.77;103.27;;;1.00;99.90;;;;;;5116555;27;20501;-82
2021/04/12 03:18:32;;;;;;;105.28;100.70;;;0.90;99.90;;;;;;5116165;28;20448;-82
2021/04/12 03:21:23;;;;;;;103.87;99.67;;;0.80;99.90;;;;;;5130064;27;20210;-82
2021/04/12 03:24:00;;;;;;;102.70;98.53;;;0.70;99.90;;;;;;5116584;27;20453;-81
2021/04/12 03:26:42;;;;;;;102.30;98.10;;;0.50;99.90;;;;;;5115989;28;20202;-82
2021/04/12 03:29:18;;;;;;;100.88;96.78;;;0.50;99.90;;;;;;5118466;27;20463;-81
2021/04/12 03:32:13;;;;;;;103.60;99.10;;;0.40;99.90;;;;;;5116458;27;20202;-81
2021/04/12 03:34:50;;;;;;;100.32;96.03;;;0.30;99.90;;;;;;5114881;28;20191;-82
2021/04/12 03:37:49;;;;;;;101.60;95.80;;;0.30;99.90;;;;;;5113436;28;20294;-81
2021/04/12 03:40:25;;;;;;;92.95;89.15;;;0.10;99.90;;;;;;5114727;28;20241;-81
2021/04/12 03:43:24;;;;;;;94.40;90.70;;;0.00;99.90;;;;;;5115573;28;20267;-80
2021/04/12 03:46:21;;;;;;;96.80;92.60;;;-0.10;99.90;;;;;;5108920;28;20195;-81
2021/04/12 03:49:24;;;;;;;88.07;84.38;;;-0.40;99.90;;;;;;5135740;27;20229;-81
2021/04/12 03:52:24;;;;;;;88.03;84.28;;;-0.50;99.90;;;;;;5117003;27;20202;-80
2021/04/12 03:55:12;;;;;;;87.72;84.15;;;-0.50;99.90;;;;;;5114282;28;20552;-81
2021/04/12 03:58:04;;;;;;;91.50;87.80;;;-0.50;99.90;;;;;;5114365;28;20187;-82
2021/04/12 04:00:51;;;;;;;97.28;93.05;;;-0.30;99.90;;;;;;5114605;28;20198;-81
2021/04/12 04:03:44;;;;;;;99.90;95.90;;;-0.20;99.90;;;;;;5130559;27;20247;-81
2021/04/12 04:06:40;;;;;;;100.70;96.50;;;-0.20;99.90;;;;;;5123947;27;20269;-80
2021/04/12 04:09:17;;;;;;;104.07;99.85;;;-0.10;99.90;;;;;;5114653;28;20662;-81
2021/04/12 04:12:02;;;;;;;96.35;92.45;;;-0.10;99.90;;;;;;5114297;28;20588;-81
2021/04/12 04:15:07;;;;;;;100.47;96.38;;;-0.10;99.90;;;;;;5113943;28;20707;-81
2021/04/12 04:17:58;;;;;;;102.85;98.55;;;-0.20;99.90;;;;;;5114167;28;20186;-81
2021/04/12 04:20:41;;;;;;;103.70;99.20;;;-0.10;99.90;;;;;;5113589;28;20746;-81
2021/04/12 04:23:36;;;;;;;;;;;;;;;;;;;;;
2021/04/12 04:26:43;;;;;;;105.30;99.70;;;-0.20;99.90;;;;;;5113849;28;20479;-82
2021/04/12 04:29:43;;;;;;;107.28;102.85;;;-0.20;99.90;;;;;;5113409;28;20199;-81
2021/04/12 04:32:30;;;;;;;106.72;102.15;;;-0.10;99.90;;;;;;5101543;28;20202;-77
2021/04/12 04:35:15;;;;;;;108.85;103.82;;;-0.20;99.90;;;;;;5122588;27;20705;-80
2021/04/12 04:38:30;;;;;;;108.55;103.85;;;-0.30;99.90;;;;;;5112801;28;20662;-81
2021/04/12 04:41:23;;;;;;;113.13;108.22;;;-0.40;99.90;;;;;;5113731;28;20260;-81
2021/04/12 04:44:17;;;;;;;113.25;108.25;;;-0.30;99.90;;;;;;5113767;27;20275;-81
2021/04/12 04:47:31;;;;;;;113.45;107.78;;;-0.40;99.90;;;;;;5106003;28;20281;-81
2021/04/12 04:50:18;;;;;;;112.25;107.53;;;-0.40;99.90;;;;;;5089254;28;20649;-82
2021/04/12 04:53:09;;;;;;;113.35;108.35;;;-0.20;99.90;;;;;;5111002;28;20641;-81
2021/04/12 04:55:46;;;;;;;109.00;104.45;;;-0.20;99.90;;;;;;5120648;27;20236;-82
2021/04/12 04:58:19;;;;;;;122.13;116.38;;;-0.10;99.90;;;;;;5122229;27;20190;-81
2021/04/12 05:00:59;;;;;;;115.15;110.03;;;0.10;99.90;;;;;;5133774;27;20214;-82
2021/04/12 05:04:08;;;;;;;120.38;114.88;;;0.10;99.90;;;;;;5113714;28;20212;-82
2021/04/12 05:07:09;;;;;;;118.05;112.65;;;0.20;99.90;;;;;;5112070;28;20251;-83
2021/04/12 05:09:49;;;;;;;117.85;112.32;;;0.20;99.90;;;;;;5114996;27;20188;-82
2021/04/12 05:12:56;;;;;;;121.75;115.03;;;0.10;99.90;;;;;;5133739;27;20190;-82
2021/04/12 05:16:03;;;;;;;119.13;113.82;;;-0.10;99.90;;;;;;5112908;28;20232;-81
2021/04/12 05:18:46;;;;;;;120.22;114.50;;;0.00;99.90;;;;;;5112467;28;20187;-81
2021/04/12 05:21:30;;;;;;;120.13;114.78;;;0.00;99.90;;;;;;5112911;28;20253;-82
2021/04/12 05:24:26;;;;;;;126.55;120.55;;;0.10;99.90;;;;;;5113352;28;20209;-82
2021/04/12 05:27:28;;;;;;;121.45;115.70;;;0.10;99.90;;;;;;5112620;28;20275;-82
2021/04/12 05:30:39;;;;;;;125.65;120.05;;;0.20;99.90;;;;;;5112757;28;20197;-82
2021/04/12 05:33:14;;;;;;;119.15;113.75;;;0.30;99.90;;;;;;5119197;27;20561;-82
2021/04/12 05:36:24;;;;;;;125.50;119.80;;;0.30;99.90;;;;;;5119525;27;20612;-82
2021/04/12 05:39:08;;;;;;;129.57;123.78;;;0.30;99.90;;;;;;5111465;28;20211;-81
2021/04/12 05:42:05;;;;;;;130.23;124.13;;;0.40;99.90;;;;;;5111677;28;20649;-81
2021/04/12 05:44:40;;;;;;;125.60;119.97;;;0.60;99.90;;;;;;5112860;28;20709;-82
2021/04/12 05:47:26;;;;;;;129.10;123.07;;;0.80;99.90;;;;;;5113667;27;20432;-81
2021/04/12 05:50:31;;;;;;;127.40;121.40;;;1.00;99.90;;;;;;5124811;27;20197;-81
2021/04/12 05:53:21;;;;;;;130.38;123.68;;;1.00;99.90;;;;;;5110428;28;20997;-81
2021/04/12 05:56:16;;;;;;;126.27;118.47;;;1.30;99.90;;;;;;5112466;28;20215;-82
2021/04/12 05:59:27;;;;;;;125.83;119.23;;;1.50;99.90;;;;;;5127771;27;20525;-82
2021/04/12 06:02:22;;;;;;;128.13;120.80;;;1.80;99.90;;;;;;5079127;28;20488;-83
2021/04/12 06:04:59;;;;;;;127.53;120.93;;;2.10;99.90;;;;;;5122158;27;20934;-81
2021/04/12 06:07:55;;;;;;;129.80;123.23;;;2.40;99.90;;;;;;5121534;27;20461;-81
2021/04/12 06:10:36;;;;;;;118.60;113.03;;;2.40;99.90;;;;;;5134461;27;20448;-81
2021/04/12 06:13:32;;;;;;;121.13;115.40;;;2.50;99.90;;;;;;5130154;27;20480;-84
2021/04/12 06:16:31;;;;;;;127.30;120.53;;;2.60;99.90;;;;;;5116350;28;20441;-83
2021/04/12 06:19:28;;;;;;;121.33;115.33;;;2.90;99.90;;;;;;5116232;28;20476;-81
2021/04/12 06:22:16;;;;;;;117.70;111.80;;;3.30;99.90;;;;;;5114191;28;20444;-81
2021/04/12 06:25:09;;;;;;;114.30;108.70;;;3.40;99.90;;;;;;5115590;28;20944;-82
2021/04/12 06:28:12;;;;;;;103.20;98.60;;;3.40;99.90;;;;;;5116542;28;20540;-82
2021/04/12 06:30:55;;;;;;;96.80;92.40;;;3.50;99.90;;;;;;5116063;28;20551;-83
2021/04/12 06:33:54;;;;;;;98.77;93.03;;;3.50;99.90;;;;;;5114813;28;21014;-81
2021/04/12 06:36:47;;;;;;;89.47;85.43;;;3.60;99.90;;;;;;5116084;28;20906;-82
2021/04/12 06:39:49;;;;;;;88.60;84.50;;;3.70;99.90;;;;;;5115991;28;20975;-82
2021/04/12 06:42:54;;;;;;;59.80;57.20;;;3.70;99.90;;;;;;5072904;28;20486;-82
2021/04/12 06:45:58;;;;;;;62.80;60.10;;;3.60;99.90;;;;;;5127229;27;20443;-84
2021/04/12 06:48:53;;;;;;;58.30;55.63;;;3.60;99.90;;;;;;5115560;28;20444;-83
2021/04/12 06:52:07;;;;;;;50.73;47.87;;;3.60;99.90;;;;;;5116672;28;20939;-81
2021/04/12 06:55:13;;;;;;;48.07;45.67;;;3.70;99.90;;;;;;5121704;27;20439;-82
2021/04/12 06:58:16;;;;;;;42.17;40.00;;;3.90;99.90;;;;;;5115404;28;20448;-82
2021/04/12 07:01:36;;;;;;;37.97;35.70;;;3.90;99.90;;;;;;5115987;27;21002;-82
2021/04/12 07:04:37;;;;;;;36.27;32.70;;;4.00;99.90;;;;;;5115201;28;20452;-83
2021/04/12 07:11:09;;;;;;;23.50;21.53;;;4.10;99.90;;;;;;5121947;27;20456;-81
2021/04/12 07:14:42;;;;;;;;;;;;;;;;;;;;;
2021/04/12 07:17:50;;;;;;;21.30;19.40;;;4.20;99.90;;;;;;5100677;27;21038;-82
2021/04/12 07:20:41;;;;;;;24.27;22.40;;;4.00;99.90;;;;;;5127107;27;20484;-83
2021/04/12 07:23:42;;;;;;;17.70;15.90;;;4.30;99.90;;;;;;5082855;28;20441;-82
2021/04/12 07:26:53;;;;;;;13.77;9.80;;;4.20;99.90;;;;;;5117218;27;20946;-83
2021/04/12 07:29:53;;;;;;;13.10;11.80;;;4.50;99.90;;;;;;5082188;28;20461;-83
2021/04/12 07:33:00;;;;;;;21.47;12.23;;;4.60;99.90;;;;;;5114499;28;20537;-82
2021/04/12 07:35:57;;;;;;;13.53;10.63;;;4.70;99.90;;;;;;5118572;27;20559;-83
2021/04/12 07:39:14;;;;;;;16.53;11.03;;;4.70;99.90;;;;;;5115484;27;20460;-83
2021/04/12 07:42:03;;;;;;;17.70;10.40;;;4.70;99.90;;;;;;5066399;28;20451;-82
2021/04/12 07:45:33;;;;;;;17.93;12.00;;;4.90;99.90;;;;;;5055172;28;21137;-82
2021/04/12 07:48:33;;;;;;;20.93;10.10;;;5.20;99.90;;;;;;5115730;28;20442;-83
2021/04/12 07:51:33;;;;;;;20.97;10.37;;;5.50;99.90;;;;;;5115307;28;20449;-83
2021/04/12 07:54:32;;;;;;;22.83;12.83;;;5.70;99.90;;;;;;5121613;27;20448;-83
2021/04/12 07:57:40;;;;;;;16.80;10.30;;;5.90;95.00;;;;;;5135878;27;20459;-83
2021/04/12 08:00:46;;;;;;;21.23;8.00;;;6.20;95.00;;;;;;5119655;27;20485;-83
2021/04/12 08:03:56;;;;;;;14.00;8.47;;;6.30;90.90;;;;;;5088783;27;20536;-82
2021/04/12 08:07:11;;;;;;;25.10;7.00;;;6.50;77.00;;;;;;5114707;27;20453;-82
2021/04/12 08:10:25;;;;;;;13.07;6.23;;;6.30;83.30;;;;;;5115033;28;20962;-83
2021/04/12 08:13:29;;;;;;;13.27;5.77;;;6.50;71.60;;;;;;5126133;27;21013;-83
2021/04/12 08:16:35;;;;;;;14.27;7.20;;;6.50;68.80;;;;;;5124220;27;20442;-83
2021/04/12 08:19:17;;;;;;;24.93;6.67;;;6.80;72.10;;;;;;5084015;28;20521;-83
2021/04/12 08:22:31;;;;;;;13.23;7.80;;;6.90;64.00;;;;;;5130956;27;21164;-83
2021/04/12 08:25:27;;;;;;;18.20;7.23;;;6.80;59.20;;;;;;5039832;28;20458;-83
2021/04/12 08:28:45;;;;;;;22.10;8.07;;;7.50;63.00;;;;;;5084389;28;20946;-83
2021/04/12 08:32:37;;;;;;;18.17;8.27;;;8.30;58.40;;;;;;5054278;27;20508;-84
2021/04/12 08:35:39;;;;;;;17.27;7.30;;;8.70;40.90;;;;;;5125622;27;20195;-83
2021/04/12 08:38:58;;;;;;;;;;;;;;;;;;;;;
2021/04/12 08:41:55;;;;;;;13.83;4.73;;;8.60;35.30;;;;;;5077728;27;20446;-82
2021/04/12 08:45:07;;;;;;;14.13;5.37;;;8.60;34.80;;;;;;5128405;27;20539;-83
2021/04/12 08:48:20;;;;;;;17.70;5.33;;;8.30;37.80;;;;;;5133565;27;20532;-83
2021/04/12 08:51:37;;;;;;;12.27;5.53;;;8.20;35.60;;;;;;5077680;28;20445;-83
2021/04/12 08:54:17;;;;;;;13.73;6.30;;;8.00;36.90;;;;;;5114491;28;20825;-83
2021/04/12 08:57:26;;;;;;;11.87;5.80;;;8.10;40.10;;;;;;5114401;28;20811;-83
2021/04/12 09:00:26;;;;;;;16.27;4.97;;;7.80;34.80;;;;;;5114046;28;20509;-83
2021/04/12 09:03:38;;;;;;;15.73;5.30;;;7.50;40.60;;;;;;5114085;28;20455;-83
2021/04/12 09:06:50;;;;;;;15.80;4.40;;;7.10;41.70;;;;;;5066120;28;20455;-83
2021/04/12 09:09:52;;;;;;;10.03;4.73;;;7.00;44.50;;;;;;5114050;28;20459;-83
2021/04/12 09:12:34;;;;;;;12.27;3.80;;;7.80;46.20;;;;;;5114128;28;20452;-84
2021/04/12 09:15:47;;;;;;;10.20;4.63;;;8.80;43.80;;;;;;5113917;28;20460;-84
2021/04/12 09:18:49;;;;;;;10.10;4.10;;;8.50;30.10;;;;;;5113770;28;20444;-83
2021/04/12 09:21:53;;;;;;;16.50;6.40;;;7.90;27.60;;;;;;5113993;28;20447;-84
2021/04/12 09:25:27;;;;;;;10.07;3.77;;;7.70;35.20;;;;;;5113677;28;20452;-83
2021/04/12 09:28:16;;;;;;;8.80;2.80;;;7.40;40.70;;;;;;5113905;28;20872;-83
2021/04/12 09:31:23;;;;;;;15.17;5.93;;;7.00;38.60;;;;;;5113434;28;20521;-83
2021/04/12 09:34:44;;;;;;;;;;;;;;;;;;;;;
2021/04/12 09:38:14;;;;;;;10.47;3.43;;;7.60;42.70;;;;;;5111698;28;20480;-84
2021/04/12 09:41:14;;;;;;;16.80;3.27;;;7.90;41.50;;;;;;5113441;28;20559;-84
2021/04/12 09:44:22;;;;;;;11.20;2.93;;;7.80;29.70;;;;;;5113479;28;20538;-84
2021/04/12 09:47:42;;;;;;;9.27;2.53;;;7.80;27.50;;;;;;5113534;28;20453;-83
2021/04/12 09:50:48;;;;;;;;;;;;;;;;;;;;;
2021/04/12 09:53:56;;;;;;;10.73;1.90;;;8.20;24.70;;;;;;5111451;28;20448;-84
2021/04/12 09:56:51;;;;;;;11.40;2.63;;;9.00;23.80;;;;;;5096537;28;20454;-84
2021/04/12 09:59:52;;;;;;;11.67;2.23;;;9.90;18.50;;;;;;5113101;28;21031;-84
2021/04/12 10:03:16;;;;;;;;;;;;;;;;;;;;;
2021/04/12 10:06:31;;;;;;;;;;;;;;;;;;;;;
2021/04/12 10:09:39;;;;;;;11.50;2.33;;;10.00;13.60;;;;;;5100259;28;20935;-83
2021/04/12 10:29:57;;;;;;;13.37;5.70;;;9.00;16.90;;;;;;4905694;28;20186;-82
2021/04/12 10:32:28;;;;;;;10.00;1.50;;;7.00;21.20;;;;;;5090539;28;20283;-82
2021/04/12 10:34:59;;;;;;;9.40;1.37;;;5.80;39.20;;;;;;5087007;28;20508;-81
2021/04/12 10:37:33;;;;;;;9.63;1.60;;;5.40;55.10;;;;;;5105124;28;20452;-81
2021/04/12 10:40:16;;;;;;;8.20;1.70;;;5.20;59.00;;;;;;5122100;28;20487;-82
2021/04/12 10:42:55;;;;;;;7.50;1.77;;;5.10;73.00;;;;;;5131292;27;20457;-82
2021/04/12 10:45:30;;;;;;;9.00;2.10;;;5.10;70.20;;;;;;5131526;27;20929;-81
2021/04/12 10:48:06;;;;;;;7.13;1.77;;;5.20;83.30;;;;;;5130539;27;20609;-80
2021/04/12 10:50:44;;;;;;;8.23;2.47;;;5.40;92.40;;;;;;5134242;27;20441;-82
2021/04/12 10:53:37;;;;;;;7.53;1.93;;;5.60;85.90;;;;;;5133949;27;20506;-82
2021/04/12 10:56:10;;;;;;;6.80;1.73;;;5.70;83.90;;;;;;5135042;27;20456;-83
2021/04/12 10:59:06;;;;;;;6.77;2.17;;;5.80;78.50;;;;;;5134485;27;20451;-81
2021/04/12 11:01:42;;;;;;;8.33;1.97;;;6.10;76.50;;;;;;5121209;27;21061;-82
2021/04/12 11:04:33;;;;;;;7.10;1.33;;;6.90;90.10;;;;;;5134863;27;20826;-82
2021/04/12 11:07:09;;;;;;;6.87;1.20;;;7.70;54.30;;;;;;5133759;27;20487;-82
2021/04/12 11:09:49;;;;;;;7.77;1.90;;;8.90;54.70;;;;;;5135097;27;20591;-82
2021/04/12 11:12:36;;;;;;;8.07;1.23;;;9.40;28.70;;;;;;5135178;27;20833;-83
2021/04/12 11:15:24;;;;;;;10.80;2.13;;;10.30;31.80;;;;;;5134376;27;20950;-83
2021/04/12 11:18:09;;;;;;;9.93;1.70;;;10.70;23.70;;;;;;5117068;27;20479;-83
2021/04/12 11:20:41;;;;;;;12.50;1.80;;;11.00;16.50;;;;;;5134811;27;20997;-84
2021/04/12 11:23:16;;;;;;;12.17;1.50;;;11.50;15.70;;;;;;5133554;27;20450;-84
2021/04/12 11:26:06;;;;;;;15.37;2.40;;;12.00;10.60;;;;;;5134925;27;20451;-84
2021/04/12 11:28:42;;;;;;;16.10;2.10;;;13.50;8.60;;;;;;5134581;27;20444;-84
2021/04/12 11:31:40;;;;;;;15.00;1.73;;;14.80;1.00;;;;;;5134435;27;20523;-84
2021/04/12 11:34:38;;;;;;;17.13;1.80;;;13.60;1.00;;;;;;5134631;27;20483;-84
2021/04/12 11:37:27;;;;;;;19.70;2.00;;;12.40;1.00;;;;;;5130798;27;20507;-84
2021/04/12 11:39:58;;;;;;;16.80;1.30;;;10.20;1.00;;;;;;5134341;27;20454;-84
2021/04/12 11:42:31;;;;;;;14.80;1.53;;;8.10;21.00;;;;;;5134395;27;20448;-84
2021/04/12 11:45:05;;;;;;;13.43;1.40;;;6.50;43.10;;;;;;5134210;27;20856;-83
2021/04/12 11:47:51;;;;;;;12.07;1.40;;;5.30;74.90;;;;;;5134647;27;20479;-83
2021/04/12 11:50:27;;;;;;;11.27;2.43;;;3.80;99.90;;;;;;5134099;27;20517;-82
2021/04/12 11:53:04;;;;;;;12.07;4.03;;;3.50;99.90;;;;;;5132782;27;20531;-81
2021/04/12 11:55:34;;;;;;;11.67;2.77;;;3.30;99.90;;;;;;5134305;27;20458;-81
2021/04/12 11:58:09;;;;;;;8.60;2.20;;;3.20;99.90;;;;;;5133890;27;20492;-85
2021/04/12 12:00:48;;;;;;;11.10;3.73;;;3.20;99.90;;;;;;5133643;27;20480;-84
2021/04/12 12:03:41;;;;;;;9.10;5.00;;;3.20;99.90;;;;;;5134224;27;20459;-81
2021/04/12 12:06:50;;;;;;;10.67;8.80;;;3.30;99.90;;;;;;5138451;27;20452;-80
2021/04/12 12:09:39;;;;;;;15.43;10.47;;;3.40;99.90;;;;;;5115905;27;20474;-84
2021/04/12 12:12:23;;;;;;;16.97;15.67;;;3.60;99.90;;;;;;5135608;27;20519;-84
2021/04/12 12:14:58;;;;;;;12.07;11.07;;;4.00;99.90;;;;;;5118403;27;20459;-84
2021/04/12 12:17:31;;;;;;;10.83;9.73;;;4.10;99.90;;;;;;5135710;27;20848;-83
2021/04/12 12:20:03;;;;;;;8.30;7.50;;;4.60;99.90;;;;;;5135486;27;20462;-82
2021/04/12 12:22:47;;;;;;;11.17;10.07;;;4.80;99.90;;;;;;5134354;27;20547;-82
2021/04/12 12:25:21;;;;;;;7.90;4.70;;;5.40;99.90;;;;;;5135583;27;20942;-83
2021/04/12 12:28:00;;;;;;;7.53;2.37;;;5.90;99.90;;;;;;5135608;27;20829;-83
2021/04/12 12:30:33;;;;;;;7.40;2.17;;;6.00;99.90;;;;;;5135172;27;20991;-83
2021/04/12 12:33:08;;;;;;;7.83;1.77;;;6.30;99.90;;;;;;5135167;27;20509;-82
2021/04/12 12:35:56;;;;;;;7.33;2.07;;;7.00;99.90;;;;;;5135098;27;20475;-84
2021/04/12 12:38:45;;;;;;;9.40;2.07;;;9.10;99.90;;;;;;5133799;27;20454;-82
2021/04/12 12:41:16;;;;;;;8.53;1.60;;;8.90;84.20;;;;;;5135132;27;20454;-82
2021/04/12 12:43:43;;;;;;;10.00;3.13;;;8.10;77.90;;;;;;5135040;27;20456;-82
2021/04/12 12:46:13;;;;;;;10.27;2.07;;;7.60;72.70;;;;;;5135447;27;20548;-82
2021/04/12 12:48:48;;;;;;;10.20;2.00;;;7.40;93.50;;;;;;5134962;27;20495;-82
2021/04/12 12:51:17;;;;;;;12.60;3.10;;;6.80;61.80;;;;;;5134694;27;20479;-82
2021/04/12 12:53:49;;;;;;;8.70;2.10;;;6.50;96.60;;;;;;5133692;27;20528;-82
2021/04/12 12:56:24;;;;;;;7.70;1.00;;;6.40;75.70;;;;;;5135021;27;20498;-83
2021/04/12 12:59:03;;;;;;;10.50;1.57;;;6.40;86.60;;;;;;5134698;27;20504;-83
2021/04/12 13:01:34;;;;;;;8.00;2.00;;;5.90;99.90;;;;;;5134847;27;20464;-84
2021/04/12 13:04:17;;;;;;;7.50;1.20;;;6.00;99.90;;;;;;5134688;27;20454;-84
2021/04/12 13:06:47;;;;;;;8.47;1.80;;;5.70;99.40;;;;;;5133670;27;21122;-83
2021/04/12 13:09:34;;;;;;;8.03;2.50;;;5.60;96.40;;;;;;5134705;27;20506;-84
2021/04/12 13:12:13;;;;;;;9.33;2.30;;;5.70;99.90;;;;;;5134566;27;20526;-84
2021/04/12 13:14:43;;;;;;;7.33;1.77;;;6.30;99.90;;;;;;5134069;27;20480;-84
2021/04/12 13:20:36;;;;;;;7.70;1.60;;;6.70;99.90;;;;;;5091558;28;20443;-84
2021/04/12 13:23:06;;;;;;;7.70;2.13;;;6.90;96.60;;;;;;5090269;28;20473;-84
2021/04/12 13:25:39;;;;;;;10.30;2.90;;;6.70;90.10;;;;;;5091588;28;20481;-83
2021/04/12 13:28:13;;;;;;;7.80;1.80;;;6.60;81.40;;;;;;5091176;28;20457;-83
2021/04/12 13:30:46;;;;;;;8.10;1.90;;;6.90;64.40;;;;;;5090872;28;20504;-84
2021/04/12 13:33:26;;;;;;;8.50;2.60;;;8.60;99.90;;;;;;5090946;28;20964;-84
2021/04/12 13:35:59;;;;;;;8.63;2.70;;;10.90;82.80;;;;;;5091008;28;20469;-85
2021/04/12 13:38:32;;;;;;;7.80;1.50;;;11.70;19.90;;;;;;5103378;28;20542;-83
2021/04/12 13:41:08;;;;;;;9.33;2.30;;;12.00;19.90;;;;;;5113554;28;20468;-84
2021/04/12 13:43:38;;;;;;;10.17;1.87;;;12.50;14.30;;;;;;5113570;28;20451;-85
2021/04/12 13:46:20;;;;;;;11.30;1.93;;;11.40;6.00;;;;;;5113498;28;20794;-84
2021/04/12 13:49:38;;;;;;;13.83;2.33;;;11.00;10.20;;;;;;5113279;28;20444;-83
2021/04/12 13:52:38;;;;;;;11.57;2.30;;;10.00;12.10;;;;;;5112138;28;20513;-83
2021/04/12 13:55:40;;;;;;;11.37;2.27;;;10.00;17.00;;;;;;5113703;28;20892;-83
2021/04/12 13:58:41;;;;;;;12.23;2.13;;;9.40;16.10;;;;;;5113519;28;20457;-84
2021/04/12 14:04:25;;;;;;;9.80;1.67;;;7.70;21.30;;;;;;5103802;28;20438;-83
2021/04/12 14:07:06;;;;;;;10.63;2.10;;;7.70;21.80;;;;;;5112171;28;20461;-83
2021/04/12 14:09:51;;;;;;;9.00;2.23;;;7.50;21.90;;;;;;5113386;28;20565;-82
2021/04/12 14:13:11;;;;;;;;;;;;;;;;;;;;;
2021/04/12 14:16:23;;;;;;;;;;;;;;;;;;;;;
2021/04/12 14:22:17;;;;;;;12.57;2.43;;;10.90;6.60;;;;;;5097402;28;20458;-84
2021/04/12 14:24:47;;;;;;;10.60;1.80;;;11.90;6.90;;;;;;5114761;28;20440;-84
2021/04/12 14:28:10;;;;;;;;;;;;;;;;;;;;;
2021/04/12 14:30:59;;;;;;;12.47;2.03;;;11.20;3.90;;;;;;5115290;28;20480;-84
2021/04/12 14:33:37;;;;;;;13.00;2.10;;;10.40;5.40;;;;;;5117027;28;20558;-84
2021/04/12 14:36:18;;;;;;;12.20;2.30;;;9.50;14.30;;;;;;5127894;27;20476;-84
2021/04/12 14:38:48;;;;;;;12.10;1.53;;;8.50;14.40;;;;;;5136505;27;20447;-85
2021/04/12 14:41:31;;;;;;;12.93;3.30;;;8.30;17.40;;;;;;5137458;27;20461;-85
2021/04/12 14:44:05;;;;;;;9.60;1.30;;;8.00;16.70;;;;;;5137381;27;20456;-84
2021/04/12 14:46:42;;;;;;;9.40;1.80;;;7.70;16.80;;;;;;5137394;27;20805;-83
2021/04/12 14:49:11;;;;;;;11.00;1.87;;;7.80;18.30;;;;;;5137280;27;20451;-84
2021/04/12 14:54:49;;;;;;;8.27;1.80;;;7.20;18.70;;;;;;5137241;27;20508;-84
2021/04/12 14:57:20;;;;;;;8.80;2.40;;;6.90;18.80;;;;;;5137186;27;20455;-84
2021/04/12 14:59:50;;;;;;;8.30;1.83;;;6.70;18.40;;;;;;5137159;27;20457;-84
2021/04/12 15:02:45;;;;;;;8.47;1.73;;;6.80;19.00;;;;;;5137295;27;20450;-83
2021/04/12 15:05:31;;;;;;;;;;;;;;;;;;;;;
2021/04/12 15:08:11;;;;;;;8.73;1.50;;;7.30;21.90;;;;;;5119302;27;20475;-84
2021/04/12 15:13:41;;;;;;;8.27;2.00;;;7.40;15.10;;;;;;5119154;27;20444;-84
2021/04/12 15:16:27;;;;;;;8.47;1.37;;;7.50;18.40;;;;;;5136733;27;20596;-84
2021/04/12 15:19:05;;;;;;;7.67;1.53;;;7.50;14.90;;;;;;5136725;27;20463;-84
2021/04/12 15:21:52;;;;;;;;;;;;;;;;;;;;;